Latest Weather Observations for Gladstone

IDQ60801

Issued at 2:35 pm EST Wednesday 16 April 2014 (issued every 30 minutes, with the page automatically refreshed every 10 minutes)

About weather observations | Map of weather stations | Latest weather observations for QLD | Other Formats
Station Details ID: 039123 Name: GLADSTONE RADAR Lat: -23.86 Lon: 151.26 Height: 74.5 m
Data from the previous 72 hours. | See also: Recent months at Gladstone
Date/Time
EST
Temp
°C
App
Temp
°C
Dew
Point
Rel
Hum
%
Delta-T
°C
Wind Press
QNH
hPa
Press
MSL
hPa
Rain
since 9 am
mm
Dir
 
Spd
km/h
Gust
km/h
Spd
kts
Gust
kts
16/02:30pm 26.9 27.5 18.5 60 5.4 NE 13 20 7 11 1013.6 - 0.0
16/02:00pm 27.1 27.5 18.9 61 5.3 NE 15 22 8 12 1013.8 - 0.0
16/01:30pm 27.1 27.4 18.7 60 5.4 NE 15 22 8 12 1014.1 - 0.0
16/01:00pm 26.9 27.4 19.3 63 4.9 NE 15 20 8 11 1014.5 - 0.0
16/12:30pm 27.9 28.5 18.6 57 6.0 NE 13 20 7 11 1014.9 - 0.0
16/12:00pm 27.2 27.6 18.2 58 5.7 NE 13 17 7 9 1015.2 1014.9 0.0
16/11:30am 26.8 26.8 18.1 59 5.5 NE 15 19 8 10 1015.7 - 0.0
16/11:00am 26.8 26.9 18.4 60 5.4 ENE 15 19 8 10 1016.1 - 0.0
16/10:30am 27.3 28.5 19.9 64 4.8 ENE 13 20 7 11 1016.5 - 0.0
16/10:00am 26.1 26.7 18.5 63 4.8 NE 13 19 7 10 1016.8 - 0.0
16/09:30am 25.5 26.8 18.4 65 4.5 E 9 15 5 8 1017.0 - 0.0
16/09:00am 24.5 25.7 18.2 68 4.0 ESE 9 13 5 7 1016.9 1016.6 0.0
16/08:30am 23.3 24.1 17.3 69 3.7 SE 9 15 5 8 1016.9 - 0.0
16/08:00am 22.6 22.9 16.9 70 3.5 SE 11 17 6 9 1016.6 - 0.0
16/07:30am 21.8 22.1 17.0 74 2.9 SSE 11 17 6 9 1016.4 - 0.0
16/07:00am 20.6 20.3 16.4 77 2.5 SSE 13 20 7 11 1016.2 - 0.0
16/06:30am 19.8 19.5 16.4 81 2.0 SSE 13 20 7 11 1015.8 - 0.0
16/06:00am 19.7 18.9 16.2 80 2.1 SSE 15 20 8 11 1015.5 1015.2 0.0
16/05:30am 19.9 19.2 16.3 80 2.2 SSE 15 20 8 11 1015.3 - 0.0
16/05:00am 19.9 19.6 16.5 81 2.1 SSE 13 19 7 10 1015.2 - 0.0
16/04:30am 20.1 19.8 16.5 80 2.2 SSE 13 19 7 10 1015.0 - 0.0
16/04:00am 20.2 20.0 16.6 80 2.2 SSE 13 20 7 11 1014.6 - 0.0
16/03:30am 20.5 20.5 17.1 81 2.1 SSE 13 22 7 12 1014.5 - 0.0
16/03:00am 20.6 20.6 17.2 81 2.1 SSE 13 20 7 11 1014.7 1014.3 0.0
16/02:30am 20.7 20.8 17.5 82 2.0 SSE 13 19 7 10 1014.8 - 0.0
16/02:00am 21.0 20.8 17.6 81 2.1 SSE 15 20 8 11 1014.9 - 0.0
16/01:30am 21.3 21.4 18.3 83 1.9 SSE 15 24 8 13 1015.1 - 0.0
16/01:00am 21.4 21.6 18.6 84 1.8 SE 15 22 8 12 1015.3 - 0.0
16/12:30am 21.6 21.5 18.8 84 1.8 SSE 17 24 9 13 1015.6 - 0.0
16/12:00am 21.8 22.1 18.8 83 1.9 SE 15 22 8 12 1015.7 1015.4 0.0
 
Date/Time
EST
Temp
°C
App
Temp
°C
Dew
Point
Rel
Hum
%
Delta-T
°C
Wind Press
QNH
hPa
Press
MSL
hPa
Rain
since 9 am
mm
Dir
 
Spd
km/h
Gust
km/h
Spd
kts
Gust
kts
15/11:30pm 22.1 22.3 19.3 84 1.8 SSE 17 20 9 11 1015.7 - 0.0
15/11:00pm 21.8 22.3 19.2 85 1.7 SSE 15 19 8 10 1015.6 - 0.0
15/10:30pm 21.9 23.5 19.1 84 1.8 ESE 9 13 5 7 1015.5 - 0.0
15/10:00pm 22.3 22.7 19.1 82 2.0 SE 15 22 8 12 1015.5 - 0.0
15/09:30pm 22.7 23.2 19.3 81 2.2 SE 15 24 8 13 1015.5 - 0.0
15/09:00pm 23.0 23.4 19.0 78 2.5 SE 15 20 8 11 1015.4 1015.1 0.0
15/08:30pm 23.4 22.4 18.9 76 2.9 E 22 30 12 16 1015.3 - 0.0
15/08:00pm 23.5 23.5 19.0 76 2.9 E 17 26 9 14 1015.0 - 0.0
15/07:30pm 23.0 23.3 18.7 77 2.7 E 15 19 8 10 1014.8 - 0.0
15/07:00pm 23.2 22.7 18.7 76 2.9 E 19 26 10 14 1014.4 - 0.0
15/06:30pm 23.1 22.9 18.6 76 2.8 E 17 22 9 12 1014.1 - 0.0
15/06:00pm 23.1 23.3 18.6 76 2.8 ENE 15 22 8 12 1014.0 1013.6 0.0
15/05:30pm 23.7 23.2 18.6 73 3.2 E 19 26 10 14 1013.7 - 0.0
15/05:00pm 24.3 23.7 18.5 70 3.7 ENE 19 28 10 15 1013.4 - 0.0
15/04:30pm 24.9 24.0 18.1 66 4.3 ENE 20 26 11 14 1013.2 - 0.0
15/04:00pm 26.0 25.9 18.7 64 4.7 ENE 17 24 9 13 1013.1 - 0.0
15/03:30pm 26.4 26.0 18.8 63 4.9 ENE 19 28 10 15 1012.9 - 0.0
15/03:00pm 26.9 26.2 18.7 60 5.3 ENE 20 28 11 15 1012.8 1012.4 0.0
15/02:30pm 27.1 26.6 18.7 60 5.4 ENE 19 26 10 14 1013.0 - 0.0
15/02:00pm 27.3 27.5 18.6 59 5.6 ENE 15 22 8 12 1013.0 - 0.0
15/01:30pm 27.3 26.5 18.0 56 5.9 ENE 19 26 10 14 1013.1 - 0.0
15/01:00pm 27.4 26.5 18.1 57 5.9 ENE 20 28 11 15 1013.3 - 0.0
15/12:30pm 27.7 27.8 18.4 57 6.0 ENE 15 24 8 13 1013.6 - 0.0
15/12:00pm 27.2 26.7 17.7 56 6.0 ENE 17 26 9 14 1014.0 1013.6 0.0
15/11:30am 27.0 26.2 18.0 58 5.7 ESE 19 28 10 15 1014.5 - 0.0
15/11:00am 25.9 24.8 17.3 59 5.4 ESE 19 30 10 16 1014.9 - 0.0
15/10:30am 26.2 26.1 17.0 57 5.7 SSE 13 37 7 20 1015.2 - 0.0
15/10:00am 25.5 23.7 16.9 59 5.3 SE 22 39 12 21 1015.3 - 0.0
15/09:30am 24.8 22.4 16.5 60 5.1 SE 24 37 13 20 1015.3 - 0.0
15/09:00am 24.5 23.3 17.0 63 4.6 SSE 19 32 10 17 1015.2 1014.9 0.2
15/08:30am 23.6 22.0 16.6 65 4.3 SE 20 35 11 19 1015.1 - 0.2
15/08:00am 23.1 23.1 17.1 69 3.7 SE 13 20 7 11 1015.0 - 0.2
15/07:30am 21.6 21.7 16.6 73 3.0 SSE 11 17 6 9 1014.9 - 0.2
15/07:00am 20.7 20.3 16.1 75 2.8 S 13 17 7 9 1014.9 - 0.2
15/06:30am 20.5 20.3 15.7 74 2.9 S 11 20 6 11 1014.7 - 0.2
15/06:00am 20.4 20.2 15.6 74 2.9 S 11 15 6 8 1014.2 1013.8 0.2
15/05:30am 20.4 20.1 15.4 73 3.0 S 11 15 6 8 1013.8 - 0.2
15/05:00am 20.9 20.2 15.4 71 3.3 S 13 20 7 11 1013.4 - 0.2
15/04:30am 21.1 20.4 15.4 70 3.4 S 13 19 7 10 1013.4 - 0.2
15/04:00am 21.1 20.1 15.6 71 3.3 S 15 22 8 12 1013.2 - 0.2
15/03:30am 21.2 20.2 15.7 71 3.3 S 15 20 8 11 1013.2 - 0.2
15/03:00am 21.2 20.7 16.0 72 3.1 S 13 20 7 11 1013.1 1012.7 0.2
15/02:30am 21.5 21.0 16.0 71 3.3 S 13 19 7 10 1013.1 - 0.2
15/02:00am 21.6 21.2 16.3 72 3.2 S 13 17 7 9 1013.2 - 0.2
15/01:30am 21.4 21.2 16.6 74 2.9 S 13 19 7 10 1013.1 - 0.2
15/01:00am 21.6 21.5 17.0 75 2.8 S 13 20 7 11 1013.0 - 0.2
15/12:30am 21.6 21.7 17.4 77 2.6 S 13 19 7 10 1012.9 - 0.2
15/12:00am 21.5 22.1 17.7 79 2.4 SSW 11 17 6 9 1013.0 1012.6 0.2
 
Date/Time
EST
Temp
°C
App
Temp
°C
Dew
Point
Rel
Hum
%
Delta-T
°C
Wind Press
QNH
hPa
Press
MSL
hPa
Rain
since 9 am
mm
Dir
 
Spd
km/h
Gust
km/h
Spd
kts
Gust
kts
14/11:30pm 21.7 22.8 18.1 80 2.2 SSW 9 15 5 8 1013.1 - 0.2
14/11:00pm 21.7 22.9 18.3 81 2.1 SW 9 15 5 8 1013.2 - 0.2
14/10:30pm 21.9 22.8 18.5 81 2.1 SSW 11 17 6 9 1013.1 - 0.2
14/10:00pm 22.2 23.3 18.8 81 2.1 SW 11 15 6 8 1013.2 - 0.2
14/09:30pm 22.4 23.4 18.6 79 2.4 SW 11 19 6 10 1013.2 - 0.2
14/09:00pm 22.7 22.6 18.7 78 2.5 SSW 17 24 9 13 1013.0 1012.6 0.2
14/08:30pm 22.6 24.2 19.2 81 2.2 SW 9 17 5 9 1012.6 - 0.2
14/08:00pm 23.1 24.6 18.8 77 2.7 SSW 9 17 5 9 1012.3 - 0.2
14/07:30pm 23.1 24.3 19.1 78 2.5 SSW 11 19 6 10 1011.8 - 0.2
14/07:00pm 23.3 24.4 18.8 76 2.9 SSW 11 19 6 10 1011.3 - 0.2
14/06:30pm 23.3 24.4 18.8 76 2.9 SSW 11 19 6 10 1010.7 - 0.2
14/06:00pm 23.7 24.4 18.8 74 3.1 SSW 13 19 7 10 1010.4 1010.0 0.2
14/05:30pm 24.1 23.9 18.5 71 3.5 S 17 30 9 16 1010.2 - 0.2
14/05:00pm 24.4 24.7 18.8 71 3.6 S 15 26 8 14 1009.7 - 0.2
14/04:30pm 24.3 24.3 18.9 72 3.4 SSW 17 26 9 14 1009.1 - 0.2
14/04:00pm 24.5 25.0 19.3 73 3.3 SSW 15 26 8 14 1008.7 - 0.2
14/03:30pm 24.8 25.5 19.6 73 3.4 S 15 32 8 17 1008.3 - 0.2
14/03:00pm 25.3 26.2 20.1 73 3.4 S 15 28 8 15 1007.9 1007.5 0.2
14/02:30pm 25.4 26.6 20.0 72 3.5 S 13 26 7 14 1007.6 - 0.2
14/02:00pm 25.8 26.1 18.7 65 4.5 SSW 15 24 8 13 1007.4 - 0.2
14/01:30pm 26.2 26.3 19.1 65 4.6 S 17 26 9 14 1007.2 - 0.2
14/01:00pm 26.1 25.8 19.2 65 4.4 SSE 19 35 10 19 1007.4 - 0.2
14/12:30pm 25.4 24.0 18.8 67 4.2 S 24 37 13 20 1007.6 - 0.2
14/12:00pm 25.2 24.7 19.1 69 3.9 SSE 20 37 11 20 1007.8 1007.4 0.0
14/11:30am 24.7 25.0 20.4 77 2.8 SSE 19 37 10 20 1008.2 - 0.0
14/11:00am 23.3 23.6 19.7 80 2.3 S 17 30 9 16 1008.6 - 0.0
14/10:30am 21.8 21.6 19.7 88 1.3 S 20 37 11 20 1008.9 - 0.0
14/10:00am 22.1 22.9 19.8 87 1.5 SSW 15 26 8 14 1008.8 - 0.0
14/09:30am 22.3 22.9 19.5 84 1.8 SW 15 24 8 13 1008.8 - 0.0
14/09:00am 22.1 22.2 19.1 83 1.9 S 17 30 9 16 1008.4 1008.0 64.4
14/08:30am 22.2 21.4 19.2 83 1.9 SSE 22 35 12 19 1007.8 - 64.4
14/08:00am 21.7 19.4 19.3 86 1.5 SE 30 48 16 26 1006.9 - 64.4
14/07:30am 21.1 18.2 18.9 87 1.4 SE 32 50 17 27 1006.4 - 64.4
14/07:00am 20.9 18.4 19.7 93 0.8 ESE 32 50 17 27 1006.5 - 64.4
14/06:30am 20.3 18.1 19.6 96 0.4 ESE 30 50 16 27 1006.6 - 64.4
14/06:03am 20.2 17.6 19.5 96 0.4 SE 32 52 17 28 1007.0 - 64.2
14/06:00am 20.2 17.6 19.5 96 0.4 SE 32 46 17 25 1007.0 1006.6 64.2
14/05:30am 20.1 17.7 19.9 99 0.1 ESE 32 52 17 28 1007.1 - 64.2
14/05:25am 20.1 18.1 19.9 99 0.1 SE 30 52 16 28 1007.3 - 64.0
14/05:00am 20.0 18.7 19.8 99 0.1 SE 26 39 14 21 1007.4 - 64.0
14/04:30am 19.8 18.8 19.6 99 0.1 SSE 24 35 13 19 1007.8 - 64.0
14/04:00am 19.9 18.9 19.7 99 0.1 SE 24 35 13 19 1008.4 - 63.6
14/03:30am 19.8 18.8 19.6 99 0.1 SE 24 39 13 21 1008.6 - 63.2
14/03:00am 19.6 19.4 19.4 99 0.1 ESE 19 28 10 15 1009.1 1008.7 62.6
14/02:30am 19.4 18.6 19.2 99 0.1 SE 22 32 12 17 1008.6 - 62.2
14/02:00am 19.4 18.6 19.2 99 0.1 SSE 22 35 12 19 1008.9 - 60.4
14/01:30am 19.4 17.8 19.2 99 0.1 SSE 26 44 14 24 1009.0 - 59.0
14/01:00am 19.5 17.9 19.3 99 0.1 SSE 26 43 14 23 1009.6 - 58.4
14/12:30am 19.4 18.2 19.2 99 0.1 SSE 24 43 13 23 1010.3 - 57.0
14/12:01am 19.3 17.3 19.1 99 0.1 SSE 28 46 15 25 1010.3 - 56.6
14/12:00am 19.3 17.7 19.1 99 0.1 SSE 26 46 14 25 1010.3 1009.9 56.6
 
Date/Time
EST
Temp
°C
App
Temp
°C
Dew
Point
Rel
Hum
%
Delta-T
°C
Wind Press
QNH
hPa
Press
MSL
hPa
Rain
since 9 am
mm
Dir
 
Spd
km/h
Gust
km/h
Spd
kts
Gust
kts
13/11:41pm 19.3 16.9 19.1 99 0.1 SE 30 50 16 27 1010.5 - 56.4
13/11:30pm 19.6 18.5 19.4 99 0.1 SSE 24 39 13 21 1010.7 - 55.8
13/11:00pm 19.8 18.8 19.6 99 0.1 SSE 24 39 13 21 1011.0 - 54.8
13/10:49pm 19.7 17.9 19.5 99 0.1 SSE 28 46 15 25 1011.0 - 54.6
13/10:30pm 20.0 19.4 19.8 99 0.1 SSE 22 41 12 22 1011.0 - 53.2
13/10:00pm 20.1 20.0 19.9 99 0.1 SSE 20 32 11 17 1011.7 - 52.0
13/09:30pm 20.2 20.3 20.0 99 0.1 SSE 19 30 10 16 1011.8 - 49.0
13/09:00pm 20.2 19.7 20.0 99 0.1 S 22 35 12 19 1011.3 1010.9 46.0
13/08:30pm 20.3 20.5 20.1 99 0.1 S 19 26 10 14 1011.5 - 42.6
13/08:00pm 20.5 21.9 20.3 99 0.1 S 13 22 7 12 1011.5 - 36.0
13/07:30pm 20.5 20.2 20.3 99 0.1 SSE 22 35 12 19 1010.4 - 35.2
13/07:00pm 20.7 20.5 20.5 99 0.1 SE 22 37 12 20 1010.2 - 34.4
13/06:30pm 21.0 20.9 20.8 99 0.1 SSE 22 37 12 20 1010.2 - 30.0
13/06:00pm 21.3 20.6 21.1 99 0.1 SE 26 41 14 22 1009.7 1009.3 25.8
13/05:30pm 21.4 21.2 21.2 99 0.1 SE 24 37 13 20 1009.2 - 23.6
13/05:00pm 21.5 22.1 21.3 99 0.1 SE 20 30 11 16 1008.9 - 23.0
13/04:30pm 21.4 21.2 21.2 99 0.1 SE 24 37 13 20 1008.5 - 22.6
13/04:00pm 21.4 22.5 21.2 99 0.1 SE 17 32 9 17 1008.7 - 21.2
13/03:30pm 21.3 21.8 21.1 99 0.1 SE 20 33 11 18 1008.7 - 20.8
13/03:00pm 21.3 21.0 21.1 99 0.1 SE 24 35 13 19 1008.5 1008.1 20.8

Other Formats:

Comma delimited format used in spreadsheet applications
http://www.bom.gov.au/fwo/IDQ60801/IDQ60801.94380.axf

JavaScript Object Notation format (JSON) in row-major order
http://www.bom.gov.au/fwo/IDQ60801/IDQ60801.94380.json